Latest Weather Observations for Ocean Reef

IDW60801

Issued at 12:43 pm WST Tuesday 10 December 2019 (issued every 10 minutes, with the page automatically refreshed every 10 minutes)

About weather observations | Map of weather stations | Latest weather observations for WA | Other Formats
Station Details ID: 009214 Name: OCEAN REEF Lat: -31.76 Lon: 115.73 Height: 10.0 m
Data from the previous 72 hours. | See also: Recent months at Ocean Reef
Date/Time
WST
Temp
°C
App
Temp
°C
Dew
Point
°C
Rel
Hum
%
Delta-T
°C
Wind Press
QNH
hPa
Press
MSL
hPa
Rain since
9am
mm
Dir  Spd
km/h
Gust
km/h
Spd
kts
Gust
kts
10/12:30pm - - - - - S 26 30 14 16 - - -
10/12:00pm - - - - - S 28 33 15 18 - - -
10/11:30am - - - - - S 28 33 15 18 - - -
10/11:00am - - - - - S 26 32 14 17 - - -
10/10:30am - - - - - S 20 26 11 14 - - -
10/10:00am - - - - - SE 17 24 9 13 - - -
10/09:30am - - - - - SSE 13 22 7 12 - - -
10/09:00am - - - - - SE 13 17 7 9 - - -
10/08:30am - - - - - ESE 13 20 7 11 - - -
10/08:00am - - - - - SE 13 17 7 9 - - -
10/07:30am - - - - - SE 13 20 7 11 - - -
10/07:00am - - - - - E 17 28 9 15 - - -
10/06:30am - - - - - E 17 28 9 15 - - -
10/06:00am - - - - - SE 9 19 5 10 - - -
10/05:30am - - - - - S 13 15 7 8 - - -
10/05:00am - - - - - SE 17 22 9 12 - - -
10/04:30am - - - - - ESE 22 28 12 15 - - -
10/04:00am - - - - - ESE 17 26 9 14 - - -
10/03:30am - - - - - SE 11 13 6 7 - - -
10/03:00am - - - - - SSE 9 11 5 6 - - -
10/02:30am - - - - - ESE 7 9 4 5 - - -
10/02:00am - - - - - SSE 13 15 7 8 - - -
10/01:30am - - - - - SSE 15 19 8 10 - - -
10/01:00am - - - - - SSE 15 17 8 9 - - -
10/12:30am - - - - - SSE 17 22 9 12 - - -
10/12:00am - - - - - SSE 15 19 8 10 - - -
 
Date/Time
WST
Temp
°C
App
Temp
°C
Dew
Point
°C
Rel
Hum
%
Delta-T
°C
Wind Press
QNH
hPa
Press
MSL
hPa
Rain since
9am
mm
Dir  Spd
km/h
Gust
km/h
Spd
kts
Gust
kts
09/11:30pm - - - - - SSE 15 19 8 10 - - -
09/11:00pm - - - - - SSE 17 22 9 12 - - -
09/10:30pm - - - - - SSE 17 24 9 13 - - -
09/10:00pm - - - - - SSE 19 26 10 14 - - -
09/09:30pm - - - - - S 32 39 17 21 - - -
09/09:00pm - - - - - S 37 44 20 24 - - -
09/08:30pm - - - - - S 37 48 20 26 - - -
09/08:00pm - - - - - S 37 48 20 26 - - -
09/07:30pm - - - - - S 39 50 21 27 - - -
09/07:00pm - - - - - S 41 50 22 27 - - -
09/06:30pm - - - - - S 39 48 21 26 - - -
09/06:00pm - - - - - S 43 50 23 27 - - -
09/05:30pm - - - - - S 43 50 23 27 - - -
09/05:00pm - - - - - S 35 44 19 24 - - -
09/04:30pm - - - - - S 37 44 20 24 - - -
09/04:00pm - - - - - SSW 41 48 22 26 - - -
09/03:30pm - - - - - S 37 43 20 23 - - -
09/03:00pm - - - - - SSW 37 43 20 23 - - -
09/02:30pm - - - - - S 32 37 17 20 - - -
09/02:00pm - - - - - SSW 30 33 16 18 - - -
09/01:30pm - - - - - SSW 28 32 15 17 - - -
09/01:00pm - - - - - SSW 28 32 15 17 - - -
09/12:30pm - - - - - SSW 28 33 15 18 - - -
09/12:00pm - - - - - SSW 28 32 15 17 - - -
09/11:30am - - - - - SSW 30 33 16 18 - - -
09/11:00am - - - - - SSW 28 33 15 18 - - -
09/10:30am - - - - - SSW 24 32 13 17 - - -
09/10:00am - - - - - SE 11 24 6 13 - - -
09/09:30am - - - - - SE 13 20 7 11 - - -
09/09:00am - - - - - ENE 17 26 9 14 - - -
09/08:30am - - - - - E 17 30 9 16 - - -
09/08:00am - - - - - ESE 13 24 7 13 - - -
09/07:30am - - - - - ESE 19 30 10 16 - - -
09/07:00am - - - - - ESE 13 19 7 10 - - -
09/06:30am - - - - - SE 11 17 6 9 - - -
09/06:00am - - - - - SE 9 15 5 8 - - -
09/05:30am - - - - - ESE 13 19 7 10 - - -
09/05:00am - - - - - ESE 13 19 7 10 - - -
09/04:30am - - - - - SE 13 17 7 9 - - -
09/04:00am - - - - - SSE 11 13 6 7 - - -
09/03:30am - - - - - SSE 9 11 5 6 - - -
09/03:00am - - - - - SE 9 11 5 6 - - -
09/02:30am - - - - - SSE 11 15 6 8 - - -
09/02:00am - - - - - SE 13 19 7 10 - - -
09/01:30am - - - - - SSE 15 20 8 11 - - -
09/01:00am - - - - - SSE 17 26 9 14 - - -
09/12:30am - - - - - SSE 17 24 9 13 - - -
09/12:00am - - - - - SE 17 20 9 11 - - -
 
Date/Time
WST
Temp
°C
App
Temp
°C
Dew
Point
°C
Rel
Hum
%
Delta-T
°C
Wind Press
QNH
hPa
Press
MSL
hPa
Rain since
9am
mm
Dir  Spd
km/h
Gust
km/h
Spd
kts
Gust
kts
08/11:30pm - - - - - SE 13 17 7 9 - - -
08/11:00pm - - - - - SSE 15 22 8 12 - - -
08/10:30pm - - - - - S 32 39 17 21 - - -
08/10:00pm - - - - - S 33 41 18 22 - - -
08/09:30pm - - - - - S 37 46 20 25 - - -
08/09:00pm - - - - - S 37 43 20 23 - - -
08/08:30pm - - - - - S 35 43 19 23 - - -
08/08:00pm - - - - - S 37 46 20 25 - - -
08/07:30pm - - - - - SSW 35 41 19 22 - - -
08/07:00pm - - - - - SSW 33 41 18 22 - - -
08/06:30pm - - - - - SSW 33 39 18 21 - - -
08/06:00pm - - - - - SSW 33 37 18 20 - - -
08/05:30pm - - - - - SSW 32 37 17 20 - - -
08/05:00pm - - - - - SSW 33 39 18 21 - - -
08/04:30pm - - - - - SSW 32 37 17 20 - - -
08/04:00pm - - - - - SSW 33 39 18 21 - - -
08/03:30pm - - - - - SSW 35 41 19 22 - - -
08/03:00pm - - - - - SSW 35 43 19 23 - - -
08/02:30pm - - - - - SSW 33 41 18 22 - - -
08/02:00pm - - - - - SSW 32 37 17 20 - - -
08/01:30pm - - - - - SSW 32 37 17 20 - - -
08/01:00pm - - - - - SW 32 35 17 19 - - -
08/12:30pm - - - - - SSW 28 33 15 18 - - -
08/12:00pm - - - - - SSW 28 35 15 19 - - -
08/11:30am - - - - - SSW 30 35 16 19 - - -
08/11:00am - - - - - SSW 28 33 15 18 - - -
08/10:30am - - - - - SSW 26 32 14 17 - - -
08/10:00am - - - - - S 26 32 14 17 - - -
08/09:30am - - - - - S 28 33 15 18 - - -
08/09:00am - - - - - S 26 35 14 19 - - -
08/08:30am - - - - - S 22 33 12 18 - - -
08/08:00am - - - - - SSE 20 30 11 16 - - -
08/07:30am - - - - - SSE 19 26 10 14 - - -
08/07:00am - - - - - SSE 19 26 10 14 - - -
08/06:30am - - - - - SSE 15 20 8 11 - - -
08/06:00am - - - - - SSE 13 17 7 9 - - -
08/05:30am - - - - - ESE 11 15 6 8 - - -
08/05:00am - - - - - SE 15 19 8 10 - - -
08/04:30am - - - - - SE 15 20 8 11 - - -
08/04:00am - - - - - SE 17 22 9 12 - - -
08/03:30am - - - - - SSW 28 33 15 18 - - -
08/03:00am - - - - - SSE 15 19 8 10 - - -
08/02:30am - - - - - S 24 30 13 16 - - -
08/02:00am - - - - - SSW 30 33 16 18 - - -
08/01:30am - - - - - SSW 30 35 16 19 - - -
08/01:00am - - - - - SSW 32 35 17 19 - - -
08/12:30am - - - - - SSW 20 26 11 14 - - -
08/12:00am - - - - - SW 26 30 14 16 - - -
 
Date/Time
WST
Temp
°C
App
Temp
°C
Dew
Point
°C
Rel
Hum
%
Delta-T
°C
Wind Press
QNH
hPa
Press
MSL
hPa
Rain since
9am
mm
Dir  Spd
km/h
Gust
km/h
Spd
kts
Gust
kts
07/11:30pm - - - - - SW 28 32 15 17 - - -
07/11:00pm - - - - - SW 24 30 13 16 - - -
07/10:30pm - - - - - SW 24 32 13 17 - - -
07/10:00pm - - - - - SW 24 32 13 17 - - -
07/09:30pm - - - - - WSW 26 32 14 17 - - -
07/09:00pm - - - - - WSW 28 33 15 18 - - -
07/08:30pm - - - - - WSW 30 37 16 20 - - -
07/08:00pm - - - - - WSW 30 35 16 19 - - -
07/07:30pm - - - - - WSW 30 33 16 18 - - -
07/07:00pm - - - - - WSW 32 33 17 18 - - -
07/06:30pm - - - - - WSW 32 39 17 21 - - -
07/06:00pm - - - - - WSW 32 37 17 20 - - -
07/05:30pm - - - - - WSW 33 39 18 21 - - -
07/05:00pm - - - - - WSW 32 37 17 20 - - -
07/04:30pm - - - - - W 35 41 19 22 - - -
07/04:00pm - - - - - W 30 35 16 19 - - -
07/03:30pm - - - - - W 30 39 16 21 - - -
07/03:00pm - - - - - W 30 33 16 18 - - -
07/02:30pm - - - - - W 30 33 16 18 - - -
07/02:00pm - - - - - W 32 35 17 19 - - -
07/01:30pm - - - - - W 35 41 19 22 - - -
07/01:05pm - - - - - WNW 35 50 19 27 - - -
07/01:00pm - - - - - NW 33 39 18 21 - - -

Other formats

Comma delimited format used in spreadsheet applications
http://www.bom.gov.au/fwo/IDW60801/IDW60801.94607.axf

JavaScript Object Notation format (JSON) in row-major order
http://www.bom.gov.au/fwo/IDW60801/IDW60801.94607.json

Data quality

Most of these data are generated automatically and are frequently updated. Quality checks on data are not normally performed. It is possible for incorrect values to appear. Refer to information at About Latest Weather Observations and please check the disclaimer before using these data.